WIF3WG ENBR-EDDH
Flight info
| Callsign | WIF3WG |
|---|---|
| Flight time | 1h 28m |
| Altitude | 25000 |
| Route | TUXIL DCT ZOL DCT RAMUD DCT ALASA M852 EKERN T905 BOGMU BOGMU5A |
| Aircraft | DH8D/M-SDE2E3FGRY/H |
Departure
| Time | 2026-05-07 07:39 |
|---|---|
| Airport | Bergen Airport, Flesland (ENBR) |
Arrival
| Time | 2026-05-07 09:07 |
|---|---|
| Airport | Hamburg Helmut Schmidt Airport (EDDH) |
| Time | Latitude | Longitude | Altitude | Speed | Heading |
|---|---|---|---|---|---|
| 2026-05-07 07:18 | 60.28657 | 5.22924 | 178 ft | 0 kts | 80° |
| 2026-05-07 07:30 | 60.28657 | 5.22921 | 178 ft | 2 kts | 80° |
| 2026-05-07 07:30 | 60.28649 | 5.22827 | 174 ft | 8 kts | 79° |
| 2026-05-07 07:31 | 60.28628 | 5.22774 | 172 ft | 4 kts | 6° |
| 2026-05-07 07:31 | 60.28624 | 5.22771 | 172 ft | 0 kts | 336° |
| 2026-05-07 07:31 | 60.28638 | 5.22760 | 172 ft | 9 kts | 343° |
| 2026-05-07 07:32 | 60.28704 | 5.22733 | 174 ft | 8 kts | 337° |
| 2026-05-07 07:32 | 60.28715 | 5.22634 | 173 ft | 8 kts | 260° |
| 2026-05-07 07:32 | 60.28704 | 5.22518 | 172 ft | 7 kts | 248° |
| 2026-05-07 07:32 | 60.28685 | 5.22380 | 169 ft | 11 kts | 288° |
| 2026-05-07 07:33 | 60.28751 | 5.22334 | 170 ft | 14 kts | 352° |
| 2026-05-07 07:33 | 60.28901 | 5.22285 | 170 ft | 22 kts | 349° |
| 2026-05-07 07:33 | 60.29042 | 5.22235 | 168 ft | 19 kts | 351° |
| 2026-05-07 07:33 | 60.29164 | 5.22195 | 166 ft | 17 kts | 351° |
| 2026-05-07 07:34 | 60.29301 | 5.22149 | 161 ft | 19 kts | 351° |
| 2026-05-07 07:34 | 60.29427 | 5.22106 | 158 ft | 17 kts | 350° |
| 2026-05-07 07:34 | 60.29539 | 5.22069 | 155 ft | 15 kts | 351° |
| 2026-05-07 07:34 | 60.29641 | 5.22034 | 152 ft | 15 kts | 349° |
| 2026-05-07 07:35 | 60.29779 | 5.21988 | 153 ft | 18 kts | 351° |
| 2026-05-07 07:35 | 60.29893 | 5.21950 | 154 ft | 14 kts | 350° |
| 2026-05-07 07:35 | 60.29990 | 5.21917 | 154 ft | 19 kts | 351° |
| 2026-05-07 07:35 | 60.30116 | 5.21875 | 159 ft | 15 kts | 350° |
| 2026-05-07 07:36 | 60.30232 | 5.21838 | 164 ft | 20 kts | 349° |
| 2026-05-07 07:36 | 60.30349 | 5.21797 | 169 ft | 14 kts | 350° |
| 2026-05-07 07:36 | 60.30461 | 5.21759 | 173 ft | 15 kts | 349° |
| 2026-05-07 07:36 | 60.30548 | 5.21729 | 178 ft | 9 kts | 350° |
| 2026-05-07 07:37 | 60.30609 | 5.21710 | 182 ft | 11 kts | 351° |
| 2026-05-07 07:37 | 60.30662 | 5.21641 | 184 ft | 9 kts | 283° |
| 2026-05-07 07:37 | 60.30653 | 5.21478 | 176 ft | 14 kts | 260° |
| 2026-05-07 07:37 | 60.30602 | 5.21389 | 169 ft | 0 kts | 169° |
| 2026-05-07 07:38 | 60.30311 | 5.21488 | 164 ft | 88 kts | 169° |
| 2026-05-07 07:38 | 60.29480 | 5.21746 | 214 ft | 142 kts | 171° |
| 2026-05-07 07:38 | 60.28460 | 5.22023 | 698 ft | 161 kts | 171° |
| 2026-05-07 07:39 | 60.27299 | 5.22375 | 1271 ft | 178 kts | 170° |
| 2026-05-07 07:39 | 60.26067 | 5.22773 | 2032 ft | 185 kts | 170° |
| 2026-05-07 07:39 | 60.24784 | 5.23196 | 2844 ft | 190 kts | 170° |
| 2026-05-07 07:39 | 60.23490 | 5.23626 | 3657 ft | 193 kts | 170° |
| 2026-05-07 07:40 | 60.22168 | 5.24066 | 4486 ft | 196 kts | 171° |
| 2026-05-07 07:40 | 60.20833 | 5.24502 | 5300 ft | 199 kts | 171° |
| 2026-05-07 07:40 | 60.19486 | 5.24955 | 6115 ft | 200 kts | 171° |
| 2026-05-07 07:40 | 60.18131 | 5.25408 | 6896 ft | 200 kts | 172° |
| 2026-05-07 07:41 | 60.16772 | 5.25855 | 7646 ft | 200 kts | 172° |
| 2026-05-07 07:41 | 60.15421 | 5.26305 | 8361 ft | 199 kts | 172° |
| 2026-05-07 07:41 | 60.14082 | 5.26744 | 9031 ft | 199 kts | 174° |
| 2026-05-07 07:41 | 60.12696 | 5.27197 | 9494 ft | 210 kts | 173° |
| 2026-05-07 07:42 | 60.11205 | 5.27703 | 9893 ft | 226 kts | 173° |
| 2026-05-07 07:42 | 60.09622 | 5.28243 | 10393 ft | 236 kts | 173° |
| 2026-05-07 07:42 | 60.07996 | 5.28759 | 10953 ft | 242 kts | 175° |
| 2026-05-07 07:42 | 60.06318 | 5.29213 | 11547 ft | 246 kts | 175° |
| 2026-05-07 07:43 | 60.04614 | 5.29668 | 12171 ft | 250 kts | 175° |
| 2026-05-07 07:43 | 60.02892 | 5.30128 | 12810 ft | 252 kts | 176° |
| 2026-05-07 07:43 | 60.01158 | 5.30593 | 13457 ft | 254 kts | 176° |
| 2026-05-07 07:43 | 59.99404 | 5.31062 | 14112 ft | 256 kts | 176° |
| 2026-05-07 07:44 | 59.97669 | 5.31526 | 14767 ft | 257 kts | 176° |
| 2026-05-07 07:44 | 59.95905 | 5.31997 | 15406 ft | 258 kts | 177° |
| 2026-05-07 07:44 | 59.94132 | 5.32469 | 16060 ft | 260 kts | 178° |
| 2026-05-07 07:44 | 59.92337 | 5.32947 | 16697 ft | 262 kts | 178° |
| 2026-05-07 07:45 | 59.90528 | 5.33428 | 17335 ft | 264 kts | 178° |
| 2026-05-07 07:45 | 59.88711 | 5.33910 | 17954 ft | 266 kts | 178° |
| 2026-05-07 07:45 | 59.86877 | 5.34396 | 18579 ft | 268 kts | 179° |
| 2026-05-07 07:45 | 59.85033 | 5.34884 | 19203 ft | 270 kts | 179° |
| 2026-05-07 07:46 | 59.83178 | 5.35375 | 19826 ft | 272 kts | 179° |
| 2026-05-07 07:46 | 59.81327 | 5.35864 | 20438 ft | 274 kts | 180° |
| 2026-05-07 07:46 | 59.79433 | 5.36355 | 21061 ft | 275 kts | 181° |
| 2026-05-07 07:46 | 59.77532 | 5.36705 | 21682 ft | 276 kts | 183° |
| 2026-05-07 07:47 | 59.75633 | 5.36998 | 22292 ft | 277 kts | 184° |
| 2026-05-07 07:47 | 59.73724 | 5.37296 | 22895 ft | 279 kts | 184° |
| 2026-05-07 07:47 | 59.71797 | 5.37601 | 23502 ft | 281 kts | 184° |
| 2026-05-07 07:47 | 59.69848 | 5.37913 | 24111 ft | 282 kts | 184° |
| 2026-05-07 07:48 | 59.67885 | 5.38229 | 24712 ft | 284 kts | 184° |
| 2026-05-07 07:48 | 59.65880 | 5.38542 | 24995 ft | 299 kts | 184° |
| 2026-05-07 07:48 | 59.63732 | 5.38890 | 25083 ft | 320 kts | 182° |
| 2026-05-07 07:48 | 59.61435 | 5.39434 | 25100 ft | 341 kts | 180° |
| 2026-05-07 07:49 | 59.59060 | 5.40052 | 25102 ft | 357 kts | 179° |
| 2026-05-07 07:49 | 59.56544 | 5.40710 | 25101 ft | 370 kts | 179° |
| 2026-05-07 07:49 | 59.53996 | 5.41381 | 25084 ft | 369 kts | 179° |
| 2026-05-07 07:49 | 59.51466 | 5.42065 | 25080 ft | 361 kts | 179° |
| 2026-05-07 07:50 | 59.49037 | 5.42710 | 25086 ft | 355 kts | 179° |
| 2026-05-07 07:50 | 59.46595 | 5.43344 | 25082 ft | 353 kts | 179° |
| 2026-05-07 07:50 | 59.44157 | 5.43967 | 25084 ft | 353 kts | 179° |
| 2026-05-07 07:50 | 59.41718 | 5.44586 | 25078 ft | 352 kts | 179° |
| 2026-05-07 07:51 | 59.39313 | 5.45212 | 25085 ft | 353 kts | 178° |
| 2026-05-07 07:51 | 59.36883 | 5.46060 | 25089 ft | 354 kts | 175° |
| 2026-05-07 07:51 | 59.34477 | 5.46971 | 25087 ft | 355 kts | 175° |
| 2026-05-07 07:51 | 59.32082 | 5.47870 | 25089 ft | 354 kts | 175° |
| 2026-05-07 07:52 | 59.29649 | 5.48776 | 25084 ft | 354 kts | 176° |
| 2026-05-07 07:52 | 59.27241 | 5.49667 | 25097 ft | 354 kts | 176° |
| 2026-05-07 07:52 | 59.24828 | 5.50553 | 25085 ft | 354 kts | 175° |
| 2026-05-07 07:52 | 59.22406 | 5.51438 | 25091 ft | 354 kts | 175° |
| 2026-05-07 07:53 | 59.20000 | 5.52315 | 25087 ft | 354 kts | 176° |
| 2026-05-07 07:53 | 59.17588 | 5.53191 | 25085 ft | 354 kts | 175° |
| 2026-05-07 07:53 | 59.15147 | 5.54075 | 25091 ft | 354 kts | 176° |
| 2026-05-07 07:53 | 59.12743 | 5.54943 | 25090 ft | 354 kts | 175° |
| 2026-05-07 07:54 | 59.10342 | 5.55809 | 25091 ft | 354 kts | 175° |
| 2026-05-07 07:54 | 59.07908 | 5.56684 | 25088 ft | 354 kts | 175° |
| 2026-05-07 07:54 | 59.05490 | 5.57552 | 25091 ft | 354 kts | 176° |
| 2026-05-07 07:54 | 59.03073 | 5.58418 | 25092 ft | 355 kts | 176° |
| 2026-05-07 07:55 | 59.00653 | 5.59284 | 25088 ft | 355 kts | 176° |
| 2026-05-07 07:55 | 58.98261 | 5.60139 | 25092 ft | 355 kts | 176° |
| 2026-05-07 07:55 | 58.95824 | 5.61008 | 25091 ft | 355 kts | 176° |
| 2026-05-07 07:55 | 58.93392 | 5.61874 | 25091 ft | 355 kts | 175° |
| 2026-05-07 07:56 | 58.90999 | 5.62725 | 25091 ft | 355 kts | 175° |
| 2026-05-07 07:56 | 58.88554 | 5.63612 | 25087 ft | 357 kts | 174° |
| 2026-05-07 07:56 | 58.86228 | 5.65326 | 25103 ft | 366 kts | 157° |
| 2026-05-07 07:56 | 58.84036 | 5.67810 | 25075 ft | 368 kts | 154° |
| 2026-05-07 07:57 | 58.81840 | 5.70348 | 25074 ft | 368 kts | 154° |
| 2026-05-07 07:57 | 58.79668 | 5.72857 | 25080 ft | 368 kts | 154° |
| 2026-05-07 07:57 | 58.77462 | 5.75396 | 25077 ft | 367 kts | 154° |
| 2026-05-07 07:57 | 58.75269 | 5.77910 | 25078 ft | 367 kts | 154° |
| 2026-05-07 07:58 | 58.73100 | 5.80390 | 25073 ft | 367 kts | 154° |
| 2026-05-07 07:58 | 58.70891 | 5.82907 | 25071 ft | 367 kts | 154° |
| 2026-05-07 07:58 | 58.68684 | 5.85417 | 25072 ft | 367 kts | 154° |
| 2026-05-07 07:58 | 58.66501 | 5.87895 | 25069 ft | 367 kts | 154° |
| 2026-05-07 07:59 | 58.64308 | 5.90379 | 25065 ft | 367 kts | 154° |
| 2026-05-07 07:59 | 58.62134 | 5.92838 | 25063 ft | 367 kts | 154° |
| 2026-05-07 07:59 | 58.59932 | 5.95323 | 25067 ft | 367 kts | 154° |
| 2026-05-07 07:59 | 58.57750 | 5.97782 | 25062 ft | 366 kts | 154° |
| 2026-05-07 08:00 | 58.55566 | 6.00240 | 25062 ft | 366 kts | 154° |
| 2026-05-07 08:00 | 58.53357 | 6.02721 | 25061 ft | 366 kts | 154° |
| 2026-05-07 08:00 | 58.51165 | 6.05179 | 25060 ft | 366 kts | 154° |
| 2026-05-07 08:00 | 58.48994 | 6.07611 | 25055 ft | 366 kts | 154° |
| 2026-05-07 08:01 | 58.46798 | 6.10067 | 25060 ft | 366 kts | 154° |
| 2026-05-07 08:01 | 58.44588 | 6.12534 | 25057 ft | 366 kts | 154° |
| 2026-05-07 08:01 | 58.42395 | 6.14979 | 25054 ft | 366 kts | 154° |
| 2026-05-07 08:01 | 58.40203 | 6.17419 | 25052 ft | 366 kts | 154° |
| 2026-05-07 08:02 | 58.38010 | 6.19857 | 25052 ft | 366 kts | 154° |
| 2026-05-07 08:02 | 58.35820 | 6.22287 | 25057 ft | 366 kts | 154° |
| 2026-05-07 08:02 | 58.33617 | 6.24730 | 25054 ft | 366 kts | 154° |
| 2026-05-07 08:02 | 58.31437 | 6.27142 | 25052 ft | 366 kts | 154° |
| 2026-05-07 08:03 | 58.29240 | 6.29570 | 25054 ft | 366 kts | 154° |
| 2026-05-07 08:03 | 58.27058 | 6.31978 | 25060 ft | 366 kts | 154° |
| 2026-05-07 08:03 | 58.24848 | 6.34413 | 25051 ft | 366 kts | 154° |
| 2026-05-07 08:03 | 58.22641 | 6.36841 | 25050 ft | 366 kts | 154° |
| 2026-05-07 08:04 | 58.20456 | 6.39242 | 25051 ft | 366 kts | 154° |
| 2026-05-07 08:04 | 58.18247 | 6.41667 | 25058 ft | 366 kts | 154° |
| 2026-05-07 08:04 | 58.16045 | 6.44078 | 25056 ft | 366 kts | 154° |
| 2026-05-07 08:04 | 58.13864 | 6.46464 | 25055 ft | 366 kts | 154° |
| 2026-05-07 08:05 | 58.11640 | 6.48894 | 25051 ft | 366 kts | 154° |
| 2026-05-07 08:05 | 58.09451 | 6.51281 | 25052 ft | 367 kts | 153° |
| 2026-05-07 08:05 | 58.07264 | 6.53664 | 25052 ft | 367 kts | 153° |
| 2026-05-07 08:05 | 58.05048 | 6.56074 | 25049 ft | 367 kts | 154° |
| 2026-05-07 08:06 | 58.02833 | 6.58480 | 25047 ft | 367 kts | 153° |
| 2026-05-07 08:06 | 58.00650 | 6.60848 | 25048 ft | 367 kts | 153° |
| 2026-05-07 08:06 | 57.98433 | 6.63249 | 25048 ft | 367 kts | 153° |
| 2026-05-07 08:06 | 57.96215 | 6.65648 | 25050 ft | 367 kts | 154° |
| 2026-05-07 08:07 | 57.94028 | 6.68010 | 25051 ft | 367 kts | 154° |
| 2026-05-07 08:07 | 57.91814 | 6.70397 | 25045 ft | 367 kts | 154° |
| 2026-05-07 08:07 | 57.89630 | 6.72749 | 25049 ft | 366 kts | 154° |
| 2026-05-07 08:07 | 57.87420 | 6.75127 | 25051 ft | 366 kts | 154° |
| 2026-05-07 08:08 | 57.85212 | 6.77497 | 25049 ft | 366 kts | 154° |
| 2026-05-07 08:08 | 57.83030 | 6.79837 | 25046 ft | 365 kts | 154° |
| 2026-05-07 08:08 | 57.80810 | 6.82214 | 25046 ft | 365 kts | 154° |
| 2026-05-07 08:08 | 57.78616 | 6.84560 | 25052 ft | 365 kts | 154° |
| 2026-05-07 08:09 | 57.76430 | 6.86894 | 25050 ft | 365 kts | 154° |
| 2026-05-07 08:09 | 57.74220 | 6.89250 | 25050 ft | 365 kts | 154° |
| 2026-05-07 08:09 | 57.72009 | 6.91605 | 25051 ft | 365 kts | 154° |
| 2026-05-07 08:09 | 57.69832 | 6.93919 | 25052 ft | 365 kts | 154° |
| 2026-05-07 08:10 | 57.67626 | 6.96261 | 25052 ft | 365 kts | 154° |
| 2026-05-07 08:10 | 57.65418 | 6.98601 | 25047 ft | 365 kts | 154° |
| 2026-05-07 08:10 | 57.63210 | 7.00940 | 25050 ft | 365 kts | 154° |
| 2026-05-07 08:10 | 57.61028 | 7.03247 | 25049 ft | 365 kts | 154° |
| 2026-05-07 08:11 | 57.58814 | 7.05584 | 25049 ft | 365 kts | 154° |
| 2026-05-07 08:11 | 57.56599 | 7.07919 | 25049 ft | 365 kts | 154° |
| 2026-05-07 08:11 | 57.54399 | 7.10235 | 25049 ft | 365 kts | 154° |
| 2026-05-07 08:11 | 57.52215 | 7.12531 | 25049 ft | 364 kts | 154° |
| 2026-05-07 08:12 | 57.50006 | 7.14850 | 25049 ft | 364 kts | 154° |
| 2026-05-07 08:12 | 57.47800 | 7.17163 | 25050 ft | 364 kts | 154° |
| 2026-05-07 08:12 | 57.45620 | 7.19446 | 25050 ft | 364 kts | 153° |
| 2026-05-07 08:12 | 57.43409 | 7.21757 | 25047 ft | 364 kts | 154° |
| 2026-05-07 08:13 | 57.41205 | 7.24058 | 25050 ft | 364 kts | 153° |
| 2026-05-07 08:13 | 57.39002 | 7.26355 | 25047 ft | 364 kts | 153° |
| 2026-05-07 08:13 | 57.36820 | 7.28627 | 25050 ft | 364 kts | 153° |
| 2026-05-07 08:13 | 57.34600 | 7.30935 | 25049 ft | 364 kts | 153° |
| 2026-05-07 08:14 | 57.32427 | 7.33191 | 25045 ft | 364 kts | 153° |
| 2026-05-07 08:14 | 57.30222 | 7.35477 | 25048 ft | 363 kts | 153° |
| 2026-05-07 08:14 | 57.28021 | 7.37755 | 25048 ft | 363 kts | 153° |
| 2026-05-07 08:14 | 57.25838 | 7.40012 | 25050 ft | 363 kts | 153° |
| 2026-05-07 08:15 | 57.23622 | 7.42300 | 25050 ft | 363 kts | 153° |
| 2026-05-07 08:15 | 57.21437 | 7.44553 | 25046 ft | 363 kts | 153° |
| 2026-05-07 08:15 | 57.19251 | 7.46805 | 25048 ft | 362 kts | 153° |
| 2026-05-07 08:15 | 57.17058 | 7.49059 | 25049 ft | 362 kts | 153° |
| 2026-05-07 08:16 | 57.14850 | 7.51327 | 25052 ft | 362 kts | 153° |
| 2026-05-07 08:16 | 57.12660 | 7.53573 | 25054 ft | 362 kts | 153° |
| 2026-05-07 08:16 | 57.10448 | 7.55838 | 25047 ft | 362 kts | 153° |
| 2026-05-07 08:16 | 57.08260 | 7.58075 | 25052 ft | 362 kts | 153° |
| 2026-05-07 08:17 | 57.06058 | 7.60324 | 25050 ft | 362 kts | 153° |
| 2026-05-07 08:17 | 57.03887 | 7.62615 | 25050 ft | 362 kts | 151° |
| 2026-05-07 08:17 | 57.01764 | 7.65003 | 25052 ft | 362 kts | 150° |
| 2026-05-07 08:17 | 56.99635 | 7.67407 | 25054 ft | 361 kts | 151° |
| 2026-05-07 08:18 | 56.97493 | 7.69815 | 25052 ft | 361 kts | 151° |
| 2026-05-07 08:18 | 56.95362 | 7.72205 | 25053 ft | 361 kts | 151° |
| 2026-05-07 08:18 | 56.93201 | 7.74620 | 25054 ft | 361 kts | 151° |
| 2026-05-07 08:18 | 56.91089 | 7.76976 | 25055 ft | 361 kts | 151° |
| 2026-05-07 08:19 | 56.88931 | 7.79378 | 25052 ft | 361 kts | 151° |
| 2026-05-07 08:19 | 56.86799 | 7.81745 | 25054 ft | 361 kts | 151° |
| 2026-05-07 08:19 | 56.84671 | 7.84105 | 25054 ft | 360 kts | 151° |
| 2026-05-07 08:19 | 56.82542 | 7.86461 | 25057 ft | 360 kts | 152° |
| 2026-05-07 08:20 | 56.80379 | 7.88851 | 25055 ft | 360 kts | 152° |
| 2026-05-07 08:20 | 56.78256 | 7.91193 | 25055 ft | 360 kts | 152° |
| 2026-05-07 08:20 | 56.76112 | 7.93555 | 25056 ft | 360 kts | 152° |
| 2026-05-07 08:20 | 56.73989 | 7.95889 | 25054 ft | 359 kts | 152° |
| 2026-05-07 08:21 | 56.71854 | 7.98236 | 25054 ft | 359 kts | 151° |
| 2026-05-07 08:21 | 56.69714 | 8.00582 | 25053 ft | 359 kts | 151° |
| 2026-05-07 08:21 | 56.67564 | 8.02938 | 25053 ft | 359 kts | 151° |
| 2026-05-07 08:21 | 56.65452 | 8.05248 | 25055 ft | 359 kts | 151° |
| 2026-05-07 08:22 | 56.63288 | 8.07612 | 25056 ft | 359 kts | 151° |
| 2026-05-07 08:22 | 56.61163 | 8.09930 | 25057 ft | 359 kts | 151° |
| 2026-05-07 08:22 | 56.59036 | 8.12247 | 25061 ft | 358 kts | 151° |
| 2026-05-07 08:22 | 56.56895 | 8.14577 | 25064 ft | 358 kts | 151° |
| 2026-05-07 08:23 | 56.54769 | 8.16887 | 25065 ft | 358 kts | 151° |
| 2026-05-07 08:23 | 56.52640 | 8.19198 | 25068 ft | 358 kts | 151° |
| 2026-05-07 08:23 | 56.50502 | 8.21515 | 25069 ft | 358 kts | 151° |
| 2026-05-07 08:23 | 56.48385 | 8.23806 | 25067 ft | 358 kts | 151° |
| 2026-05-07 08:24 | 56.46252 | 8.26111 | 25067 ft | 358 kts | 151° |
| 2026-05-07 08:24 | 56.44115 | 8.28418 | 25069 ft | 358 kts | 151° |
| 2026-05-07 08:24 | 56.41966 | 8.30735 | 25070 ft | 358 kts | 151° |
| 2026-05-07 08:24 | 56.39836 | 8.33028 | 25069 ft | 358 kts | 151° |
| 2026-05-07 08:25 | 56.37701 | 8.35323 | 25067 ft | 358 kts | 151° |
| 2026-05-07 08:25 | 56.35566 | 8.37616 | 25068 ft | 358 kts | 151° |
| 2026-05-07 08:25 | 56.33459 | 8.39875 | 25068 ft | 358 kts | 151° |
| 2026-05-07 08:25 | 56.31322 | 8.42163 | 25067 ft | 358 kts | 151° |
| 2026-05-07 08:26 | 56.27056 | 8.46722 | 25065 ft | 357 kts | 151° |
| 2026-05-07 08:26 | 56.24926 | 8.48995 | 25065 ft | 357 kts | 151° |
| 2026-05-07 08:26 | 56.22783 | 8.51278 | 25068 ft | 357 kts | 151° |
| 2026-05-07 08:27 | 56.20666 | 8.53530 | 25069 ft | 357 kts | 151° |
| 2026-05-07 08:27 | 56.18548 | 8.55781 | 25066 ft | 357 kts | 151° |
| 2026-05-07 08:27 | 56.16411 | 8.58048 | 25066 ft | 357 kts | 151° |
| 2026-05-07 08:27 | 56.14283 | 8.60303 | 25068 ft | 357 kts | 151° |
| 2026-05-07 08:28 | 56.12149 | 8.62561 | 25067 ft | 357 kts | 151° |
| 2026-05-07 08:28 | 56.10016 | 8.64817 | 25067 ft | 356 kts | 151° |
| 2026-05-07 08:28 | 56.07900 | 8.67050 | 25066 ft | 356 kts | 152° |
| 2026-05-07 08:28 | 56.05774 | 8.69292 | 25069 ft | 356 kts | 152° |
| 2026-05-07 08:29 | 56.03651 | 8.71527 | 25068 ft | 356 kts | 152° |
| 2026-05-07 08:29 | 56.01505 | 8.73784 | 25068 ft | 355 kts | 152° |
| 2026-05-07 08:29 | 55.99388 | 8.76006 | 25070 ft | 355 kts | 152° |
| 2026-05-07 08:29 | 55.97275 | 8.78223 | 25070 ft | 355 kts | 152° |
| 2026-05-07 08:30 | 55.95148 | 8.80451 | 25069 ft | 355 kts | 152° |
| 2026-05-07 08:30 | 55.93031 | 8.82666 | 25068 ft | 354 kts | 152° |
| 2026-05-07 08:30 | 55.90912 | 8.84880 | 25066 ft | 354 kts | 152° |
| 2026-05-07 08:30 | 55.88792 | 8.87093 | 25067 ft | 354 kts | 152° |
| 2026-05-07 08:31 | 55.86675 | 8.89298 | 25069 ft | 354 kts | 152° |
| 2026-05-07 08:31 | 55.84561 | 8.91499 | 25068 ft | 354 kts | 152° |
| 2026-05-07 08:31 | 55.82422 | 8.93722 | 25068 ft | 354 kts | 152° |
| 2026-05-07 08:31 | 55.80284 | 8.95941 | 25069 ft | 354 kts | 152° |
| 2026-05-07 08:32 | 55.78188 | 8.98114 | 25069 ft | 354 kts | 152° |
| 2026-05-07 08:32 | 55.76060 | 9.00318 | 25071 ft | 354 kts | 152° |
| 2026-05-07 08:32 | 55.73940 | 9.02511 | 25071 ft | 354 kts | 152° |
| 2026-05-07 08:32 | 55.71810 | 9.04711 | 25069 ft | 354 kts | 152° |
| 2026-05-07 08:33 | 55.69691 | 9.06896 | 25071 ft | 354 kts | 152° |
| 2026-05-07 08:33 | 55.67548 | 9.09104 | 25070 ft | 354 kts | 152° |
| 2026-05-07 08:33 | 55.65448 | 9.11266 | 25071 ft | 354 kts | 151° |
| 2026-05-07 08:33 | 55.63317 | 9.13455 | 25071 ft | 353 kts | 151° |
| 2026-05-07 08:34 | 55.61180 | 9.15648 | 25070 ft | 353 kts | 151° |
| 2026-05-07 08:34 | 55.59072 | 9.17809 | 25072 ft | 353 kts | 151° |
| 2026-05-07 08:34 | 55.56934 | 9.19998 | 25070 ft | 353 kts | 151° |
| 2026-05-07 08:34 | 55.54825 | 9.22154 | 25070 ft | 353 kts | 151° |
| 2026-05-07 08:35 | 55.52680 | 9.24345 | 25071 ft | 353 kts | 151° |
| 2026-05-07 08:35 | 55.50570 | 9.26497 | 25071 ft | 353 kts | 151° |
| 2026-05-07 08:35 | 55.48444 | 9.28662 | 25069 ft | 353 kts | 151° |
| 2026-05-07 08:35 | 55.46308 | 9.30836 | 25070 ft | 353 kts | 151° |
| 2026-05-07 08:36 | 55.44191 | 9.32986 | 25072 ft | 353 kts | 151° |
| 2026-05-07 08:36 | 55.42061 | 9.35148 | 25071 ft | 353 kts | 151° |
| 2026-05-07 08:36 | 55.39948 | 9.37290 | 25071 ft | 353 kts | 151° |
| 2026-05-07 08:36 | 55.37830 | 9.39434 | 25071 ft | 353 kts | 151° |
| 2026-05-07 08:37 | 55.35690 | 9.41596 | 25071 ft | 353 kts | 151° |
| 2026-05-07 08:37 | 55.33581 | 9.43726 | 25071 ft | 352 kts | 151° |
| 2026-05-07 08:37 | 55.31450 | 9.45875 | 25071 ft | 352 kts | 151° |
| 2026-05-07 08:37 | 55.29356 | 9.47985 | 25072 ft | 352 kts | 151° |
| 2026-05-07 08:38 | 55.27227 | 9.50126 | 25071 ft | 352 kts | 151° |
| 2026-05-07 08:38 | 55.25110 | 9.52252 | 25072 ft | 351 kts | 151° |
| 2026-05-07 08:38 | 55.22983 | 9.54387 | 25070 ft | 351 kts | 151° |
| 2026-05-07 08:38 | 55.20866 | 9.56509 | 25069 ft | 351 kts | 151° |
| 2026-05-07 08:39 | 55.18774 | 9.58603 | 25069 ft | 351 kts | 151° |
| 2026-05-07 08:39 | 55.16659 | 9.60717 | 25069 ft | 351 kts | 151° |
| 2026-05-07 08:39 | 55.14540 | 9.62834 | 25067 ft | 351 kts | 151° |
| 2026-05-07 08:39 | 55.12431 | 9.64937 | 25064 ft | 351 kts | 151° |
| 2026-05-07 08:40 | 55.10305 | 9.67054 | 25066 ft | 351 kts | 152° |
| 2026-05-07 08:40 | 55.08187 | 9.69161 | 25066 ft | 351 kts | 152° |
| 2026-05-07 08:40 | 55.06070 | 9.71265 | 25067 ft | 351 kts | 152° |
| 2026-05-07 08:40 | 55.03979 | 9.73340 | 25067 ft | 350 kts | 152° |
| 2026-05-07 08:41 | 55.01869 | 9.75431 | 25067 ft | 350 kts | 152° |
| 2026-05-07 08:41 | 54.99761 | 9.77518 | 25068 ft | 350 kts | 152° |
| 2026-05-07 08:41 | 54.97654 | 9.79601 | 25066 ft | 350 kts | 152° |
| 2026-05-07 08:41 | 54.95530 | 9.81699 | 25068 ft | 350 kts | 152° |
| 2026-05-07 08:42 | 54.93430 | 9.83770 | 25068 ft | 349 kts | 152° |
| 2026-05-07 08:42 | 54.91305 | 9.85863 | 25067 ft | 349 kts | 152° |
| 2026-05-07 08:42 | 54.89216 | 9.87919 | 25067 ft | 349 kts | 152° |
| 2026-05-07 08:42 | 54.87081 | 9.90018 | 25069 ft | 349 kts | 152° |
| 2026-05-07 08:43 | 54.84994 | 9.92066 | 25069 ft | 349 kts | 152° |
| 2026-05-07 08:43 | 54.82880 | 9.94129 | 25067 ft | 349 kts | 153° |
| 2026-05-07 08:43 | 54.80619 | 9.95506 | 25045 ft | 344 kts | 175° |
| 2026-05-07 08:43 | 54.78248 | 9.95225 | 25084 ft | 339 kts | 191° |
| 2026-05-07 08:44 | 54.75929 | 9.94501 | 25078 ft | 340 kts | 192° |
| 2026-05-07 08:44 | 54.73630 | 9.93759 | 24879 ft | 336 kts | 192° |
| 2026-05-07 08:44 | 54.71371 | 9.93032 | 24551 ft | 331 kts | 192° |
| 2026-05-07 08:44 | 54.69118 | 9.92301 | 24175 ft | 331 kts | 192° |
| 2026-05-07 08:45 | 54.66853 | 9.91567 | 23788 ft | 329 kts | 192° |
| 2026-05-07 08:45 | 54.64623 | 9.90845 | 23404 ft | 327 kts | 192° |
| 2026-05-07 08:45 | 54.62394 | 9.90130 | 23018 ft | 326 kts | 192° |
| 2026-05-07 08:45 | 54.60179 | 9.89424 | 22633 ft | 324 kts | 192° |
| 2026-05-07 08:46 | 54.57986 | 9.88724 | 22247 ft | 323 kts | 192° |
| 2026-05-07 08:46 | 54.55772 | 9.88018 | 21865 ft | 322 kts | 192° |
| 2026-05-07 08:46 | 54.53580 | 9.87320 | 21486 ft | 321 kts | 192° |
| 2026-05-07 08:46 | 54.51389 | 9.86745 | 21045 ft | 322 kts | 184° |
| 2026-05-07 08:47 | 54.49213 | 9.87488 | 20715 ft | 322 kts | 160° |
| 2026-05-07 08:47 | 54.47196 | 9.89066 | 20333 ft | 322 kts | 156° |
| 2026-05-07 08:47 | 54.45084 | 9.90275 | 19934 ft | 318 kts | 174° |
| 2026-05-07 08:47 | 54.42915 | 9.90123 | 19604 ft | 311 kts | 191° |
| 2026-05-07 08:48 | 54.40807 | 9.89385 | 19280 ft | 309 kts | 194° |
| 2026-05-07 08:48 | 54.38718 | 9.88588 | 18978 ft | 306 kts | 194° |
| 2026-05-07 08:48 | 54.36666 | 9.87802 | 18675 ft | 305 kts | 194° |
| 2026-05-07 08:48 | 54.34611 | 9.87014 | 18328 ft | 303 kts | 194° |
| 2026-05-07 08:49 | 54.32538 | 9.86216 | 17899 ft | 304 kts | 194° |
| 2026-05-07 08:49 | 54.30483 | 9.85422 | 17471 ft | 304 kts | 194° |
| 2026-05-07 08:49 | 54.28439 | 9.84628 | 17044 ft | 303 kts | 194° |
| 2026-05-07 08:49 | 54.26374 | 9.83816 | 16612 ft | 303 kts | 194° |
| 2026-05-07 08:50 | 54.24336 | 9.83007 | 16185 ft | 303 kts | 194° |
| 2026-05-07 08:50 | 54.22293 | 9.82193 | 15759 ft | 303 kts | 194° |
| 2026-05-07 08:50 | 54.20247 | 9.81371 | 15328 ft | 302 kts | 194° |
| 2026-05-07 08:50 | 54.18238 | 9.80559 | 14901 ft | 299 kts | 194° |
| 2026-05-07 08:51 | 54.16226 | 9.79742 | 14468 ft | 297 kts | 194° |
| 2026-05-07 08:51 | 54.14215 | 9.78918 | 14036 ft | 295 kts | 194° |
| 2026-05-07 08:51 | 54.12236 | 9.78102 | 13622 ft | 293 kts | 194° |
| 2026-05-07 08:51 | 54.10267 | 9.77284 | 13196 ft | 291 kts | 194° |
| 2026-05-07 08:52 | 54.08314 | 9.76467 | 12777 ft | 290 kts | 194° |
| 2026-05-07 08:52 | 54.06362 | 9.75644 | 12342 ft | 289 kts | 194° |
| 2026-05-07 08:52 | 54.04433 | 9.74825 | 11912 ft | 287 kts | 194° |
| 2026-05-07 08:52 | 54.02512 | 9.74007 | 11486 ft | 286 kts | 194° |
| 2026-05-07 08:53 | 54.00569 | 9.73173 | 11054 ft | 285 kts | 194° |
| 2026-05-07 08:53 | 53.98663 | 9.72348 | 10626 ft | 284 kts | 194° |
| 2026-05-07 08:53 | 53.96758 | 9.71516 | 10198 ft | 283 kts | 194° |
| 2026-05-07 08:53 | 53.94855 | 9.70676 | 9772 ft | 282 kts | 194° |
| 2026-05-07 08:54 | 53.92968 | 9.69833 | 9348 ft | 282 kts | 194° |
| 2026-05-07 08:54 | 53.91103 | 9.68989 | 8925 ft | 279 kts | 194° |
| 2026-05-07 08:54 | 53.89232 | 9.68129 | 8496 ft | 277 kts | 194° |
| 2026-05-07 08:54 | 53.87396 | 9.67274 | 8068 ft | 274 kts | 194° |
| 2026-05-07 08:55 | 53.85558 | 9.66407 | 7631 ft | 272 kts | 194° |
| 2026-05-07 08:55 | 53.83751 | 9.65544 | 7197 ft | 269 kts | 194° |
| 2026-05-07 08:55 | 53.81963 | 9.64681 | 6759 ft | 264 kts | 194° |
| 2026-05-07 08:55 | 53.80227 | 9.63828 | 6324 ft | 260 kts | 194° |
| 2026-05-07 08:56 | 53.78495 | 9.62965 | 5888 ft | 256 kts | 194° |
| 2026-05-07 08:56 | 53.76803 | 9.62116 | 5455 ft | 253 kts | 194° |
| 2026-05-07 08:56 | 53.75133 | 9.61272 | 5018 ft | 250 kts | 194° |
| 2026-05-07 08:56 | 53.73489 | 9.60435 | 4587 ft | 248 kts | 194° |
| 2026-05-07 08:57 | 53.71860 | 9.59594 | 4155 ft | 245 kts | 194° |
| 2026-05-07 08:57 | 53.70221 | 9.58738 | 3721 ft | 243 kts | 194° |
| 2026-05-07 08:57 | 53.68633 | 9.57898 | 3293 ft | 241 kts | 194° |
| 2026-05-07 08:57 | 53.67041 | 9.57059 | 3048 ft | 229 kts | 194° |
| 2026-05-07 08:58 | 53.65595 | 9.56294 | 3052 ft | 212 kts | 194° |
| 2026-05-07 08:58 | 53.64183 | 9.55537 | 3072 ft | 211 kts | 195° |
| 2026-05-07 08:58 | 53.62797 | 9.54803 | 3078 ft | 212 kts | 195° |
| 2026-05-07 08:58 | 53.61380 | 9.54054 | 3077 ft | 212 kts | 195° |
| 2026-05-07 08:59 | 53.59974 | 9.53312 | 3077 ft | 212 kts | 194° |
| 2026-05-07 08:59 | 53.58551 | 9.52965 | 3067 ft | 205 kts | 168° |
| 2026-05-07 08:59 | 53.57305 | 9.53921 | 3077 ft | 194 kts | 137° |
| 2026-05-07 08:59 | 53.56306 | 9.55411 | 3078 ft | 194 kts | 135° |
| 2026-05-07 09:00 | 53.55289 | 9.56924 | 3077 ft | 194 kts | 135° |
| 2026-05-07 09:00 | 53.54284 | 9.58423 | 3075 ft | 194 kts | 135° |
| 2026-05-07 09:00 | 53.53266 | 9.59942 | 3077 ft | 195 kts | 135° |
| 2026-05-07 09:00 | 53.52262 | 9.61444 | 3075 ft | 194 kts | 135° |
| 2026-05-07 09:01 | 53.51261 | 9.62950 | 3071 ft | 193 kts | 133° |
| 2026-05-07 09:01 | 53.50588 | 9.64808 | 3063 ft | 183 kts | 99° |
| 2026-05-07 09:01 | 53.50591 | 9.66885 | 3074 ft | 179 kts | 84° |
| 2026-05-07 09:01 | 53.50682 | 9.68961 | 3072 ft | 178 kts | 85° |
| 2026-05-07 09:02 | 53.50771 | 9.71026 | 3071 ft | 178 kts | 84° |
| 2026-05-07 09:02 | 53.50861 | 9.73117 | 3070 ft | 177 kts | 84° |
| 2026-05-07 09:02 | 53.51262 | 9.75009 | 3066 ft | 173 kts | 52° |
| 2026-05-07 09:02 | 53.52058 | 9.76506 | 3073 ft | 172 kts | 52° |
| 2026-05-07 09:03 | 53.52779 | 9.78104 | 2965 ft | 178 kts | 54° |
| 2026-05-07 09:03 | 53.53574 | 9.79748 | 2724 ft | 182 kts | 51° |
| 2026-05-07 09:03 | 53.54373 | 9.81341 | 2495 ft | 174 kts | 52° |
| 2026-05-07 09:03 | 53.55130 | 9.82882 | 2223 ft | 166 kts | 51° |
| 2026-05-07 09:04 | 53.55826 | 9.84275 | 1974 ft | 148 kts | 52° |
| 2026-05-07 09:04 | 53.56482 | 9.85613 | 1806 ft | 145 kts | 52° |
| 2026-05-07 09:04 | 53.57098 | 9.86852 | 1663 ft | 137 kts | 51° |
| 2026-05-07 09:04 | 53.57704 | 9.88079 | 1432 ft | 135 kts | 52° |
| 2026-05-07 09:05 | 53.58297 | 9.89271 | 1231 ft | 134 kts | 53° |
| 2026-05-07 09:05 | 53.58917 | 9.90534 | 1075 ft | 141 kts | 51° |
| 2026-05-07 09:05 | 53.59544 | 9.91786 | 858 ft | 137 kts | 50° |
| 2026-05-07 09:05 | 53.60122 | 9.92943 | 652 ft | 121 kts | 52° |
| 2026-05-07 09:06 | 53.60637 | 9.93993 | 499 ft | 114 kts | 51° |
| 2026-05-07 09:06 | 53.61153 | 9.95040 | 367 ft | 121 kts | 55° |
| 2026-05-07 09:06 | 53.61711 | 9.96124 | 219 ft | 126 kts | 53° |
| 2026-05-07 09:06 | 53.62283 | 9.97289 | 74 ft | 125 kts | 54° |
| 2026-05-07 09:07 | 53.62775 | 9.98295 | 64 ft | 101 kts | 51° |
| 2026-05-07 09:07 | 53.63150 | 9.99053 | 63 ft | 60 kts | 50° |
| 2026-05-07 09:07 | 53.63287 | 9.99408 | 63 ft | 21 kts | 80° |
| 2026-05-07 09:07 | 53.63284 | 9.99582 | 63 ft | 8 kts | 99° |
| 2026-05-07 09:08 | 53.63280 | 9.99615 | 63 ft | 0 kts | 99° |
| 2026-05-07 09:09 | 53.63279 | 9.99628 | 63 ft | 4 kts | 99° |
| 2026-05-07 09:09 | 53.63274 | 9.99680 | 63 ft | 4 kts | 99° |
| 2026-05-07 09:09 | 53.63269 | 9.99717 | 63 ft | 2 kts | 117° |
| 2026-05-07 09:09 | 53.63242 | 9.99745 | 63 ft | 6 kts | 154° |
| 2026-05-07 09:10 | 53.63203 | 9.99777 | 63 ft | 6 kts | 152° |
| 2026-05-07 09:10 | 53.63163 | 9.99813 | 63 ft | 7 kts | 152° |
| 2026-05-07 09:10 | 53.63119 | 9.99850 | 63 ft | 6 kts | 152° |
| 2026-05-07 09:10 | 53.63111 | 9.99894 | 63 ft | 3 kts | 54° |
| 2026-05-07 09:11 | 53.63129 | 9.99936 | 63 ft | 5 kts | 54° |
| 2026-05-07 09:11 | 53.63152 | 9.99981 | 63 ft | 4 kts | 53° |
| 2026-05-07 09:11 | 53.63148 | 10.00017 | 63 ft | 2 kts | 136° |
| 2026-05-07 09:11 | 53.63132 | 10.00038 | 63 ft | 4 kts | 140° |
| 2026-05-07 09:12 | 53.63123 | 10.00052 | 63 ft | 0 kts | 140° |